sensor_id;sensor_type;location;lat;lon;timestamp;temperature;humidity
23207;DHT22;11773;52.570;13.052;2023-12-29T00:02:10;8.90;99.90
23207;DHT22;11773;52.570;13.052;2023-12-29T00:04:39;8.90;99.90
23207;DHT22;11773;52.570;13.052;2023-12-29T00:07:10;8.90;99.90
23207;DHT22;11773;52.570;13.052;2023-12-29T00:09:39;8.90;99.90
23207;DHT22;11773;52.570;13.052;2023-12-29T00:12:09;8.80;99.90
23207;DHT22;11773;52.570;13.052;2023-12-29T00:14:39;8.90;99.90
23207;DHT22;11773;52.570;13.052;2023-12-29T00:17:10;9.00;99.90
23207;DHT22;11773;52.570;13.052;2023-12-29T00:19:39;9.00;99.90
23207;DHT22;11773;52.570;13.052;2023-12-29T00:22:09;9.00;99.90
23207;DHT22;11773;52.570;13.052;2023-12-29T00:24:39;8.90;99.90
23207;DHT22;11773;52.570;13.052;2023-12-29T00:27:08;8.90;99.90
23207;DHT22;11773;52.570;13.052;2023-12-29T00:29:44;9.00;99.90
23207;DHT22;11773;52.570;13.052;2023-12-29T00:32:14;9.00;99.90
23207;DHT22;11773;52.570;13.052;2023-12-29T00:34:43;9.00;99.90
23207;DHT22;11773;52.570;13.052;2023-12-29T00:37:13;9.00;99.90
23207;DHT22;11773;52.570;13.052;2023-12-29T00:39:43;9.10;99.90
23207;DHT22;11773;52.570;13.052;2023-12-29T00:42:12;9.10;99.90
23207;DHT22;11773;52.570;13.052;2023-12-29T00:44:42;9.10;99.90
23207;DHT22;11773;52.570;13.052;2023-12-29T00:47:11;9.10;99.90
23207;DHT22;11773;52.570;13.052;2023-12-29T00:49:41;9.00;99.90
23207;DHT22;11773;52.570;13.052;2023-12-29T00:52:11;9.00;99.90
23207;DHT22;11773;52.570;13.052;2023-12-29T00:54:40;9.10;99.90
23207;DHT22;11773;52.570;13.052;2023-12-29T00:57:10;9.10;99.90
23207;DHT22;11773;52.570;13.052;2023-12-29T00:59:41;9.00;99.90
23207;DHT22;11773;52.570;13.052;2023-12-29T01:02:11;9.00;99.90
23207;DHT22;11773;52.570;13.052;2023-12-29T01:04:41;9.00;99.90
23207;DHT22;11773;52.570;13.052;2023-12-29T01:07:11;9.00;99.90
23207;DHT22;11773;52.570;13.052;2023-12-29T01:09:41;9.10;99.90
23207;DHT22;11773;52.570;13.052;2023-12-29T01:12:10;9.10;99.90
23207;DHT22;11773;52.570;13.052;2023-12-29T01:14:42;9.00;99.90
23207;DHT22;11773;52.570;13.052;2023-12-29T01:17:12;9.10;99.90
23207;DHT22;11773;52.570;13.052;2023-12-29T01:19:41;9.10;99.90
23207;DHT22;11773;52.570;13.052;2023-12-29T01:22:11;9.10;99.90
23207;DHT22;11773;52.570;13.052;2023-12-29T01:24:41;9.10;99.90
23207;DHT22;11773;52.570;13.052;2023-12-29T01:27:12;9.00;99.90
23207;DHT22;11773;52.570;13.052;2023-12-29T01:29:42;9.00;99.90
23207;DHT22;11773;52.570;13.052;2023-12-29T01:32:11;9.10;99.90
23207;DHT22;11773;52.570;13.052;2023-12-29T01:34:41;9.10;99.90
23207;DHT22;11773;52.570;13.052;2023-12-29T01:37:11;9.10;99.90
23207;DHT22;11773;52.570;13.052;2023-12-29T01:39:40;9.10;99.90
23207;DHT22;11773;52.570;13.052;2023-12-29T01:42:10;9.10;99.90
23207;DHT22;11773;52.570;13.052;2023-12-29T01:44:39;9.10;99.90
23207;DHT22;11773;52.570;13.052;2023-12-29T01:47:14;9.10;99.90
23207;DHT22;11773;52.570;13.052;2023-12-29T01:49:48;9.00;99.90
23207;DHT22;11773;52.570;13.052;2023-12-29T01:52:20;9.00;99.90
23207;DHT22;11773;52.570;13.052;2023-12-29T01:54:50;9.00;99.90
23207;DHT22;11773;52.570;13.052;2023-12-29T01:57:22;9.00;99.90
23207;DHT22;11773;52.570;13.052;2023-12-29T01:59:52;9.00;99.90
23207;DHT22;11773;52.570;13.052;2023-12-29T02:02:21;8.90;99.90
23207;DHT22;11773;52.570;13.052;2023-12-29T02:04:51;9.00;99.90
23207;DHT22;11773;52.570;13.052;2023-12-29T02:07:21;9.00;99.90
23207;DHT22;11773;52.570;13.052;2023-12-29T02:09:52;9.00;99.90
23207;DHT22;11773;52.570;13.052;2023-12-29T02:12:21;9.10;99.90
23207;DHT22;11773;52.570;13.052;2023-12-29T02:14:52;9.10;99.90
23207;DHT22;11773;52.570;13.052;2023-12-29T02:17:27;9.00;99.90
23207;DHT22;11773;52.570;13.052;2023-12-29T02:20:03;9.00;99.90
23207;DHT22;11773;52.570;13.052;2023-12-29T02:22:34;9.00;99.90
23207;DHT22;11773;52.570;13.052;2023-12-29T02:25:05;9.00;99.90
23207;DHT22;11773;52.570;13.052;2023-12-29T02:30:38;9.00;99.90
23207;DHT22;11773;52.570;13.052;2023-12-29T02:33:21;8.90;99.90
23207;DHT22;11773;52.570;13.052;2023-12-29T02:35:52;8.90;99.90
23207;DHT22;11773;52.570;13.052;2023-12-29T02:38:21;9.00;99.90
23207;DHT22;11773;52.570;13.052;2023-12-29T02:40:51;9.00;99.90
23207;DHT22;11773;52.570;13.052;2023-12-29T02:43:20;9.10;99.90
23207;DHT22;11773;52.570;13.052;2023-12-29T02:45:50;9.10;99.90
23207;DHT22;11773;52.570;13.052;2023-12-29T02:48:20;9.10;99.90
23207;DHT22;11773;52.570;13.052;2023-12-29T02:50:49;9.00;99.90
23207;DHT22;11773;52.570;13.052;2023-12-29T02:53:19;9.10;99.90
23207;DHT22;11773;52.570;13.052;2023-12-29T02:55:48;9.10;99.90
23207;DHT22;11773;52.570;13.052;2023-12-29T02:58:18;9.10;99.90
23207;DHT22;11773;52.570;13.052;2023-12-29T03:00:48;9.20;99.90
23207;DHT22;11773;52.570;13.052;2023-12-29T03:03:17;9.10;99.90
23207;DHT22;11773;52.570;13.052;2023-12-29T03:05:47;9.20;99.90
23207;DHT22;11773;52.570;13.052;2023-12-29T03:08:16;9.20;99.90
23207;DHT22;11773;52.570;13.052;2023-12-29T03:10:46;9.20;99.90
23207;DHT22;11773;52.570;13.052;2023-12-29T03:13:15;9.20;99.90
23207;DHT22;11773;52.570;13.052;2023-12-29T03:15:45;9.30;99.90
23207;DHT22;11773;52.570;13.052;2023-12-29T03:18:15;9.30;99.90
23207;DHT22;11773;52.570;13.052;2023-12-29T03:20:44;9.30;99.90
23207;DHT22;11773;52.570;13.052;2023-12-29T03:23:14;9.40;99.90
23207;DHT22;11773;52.570;13.052;2023-12-29T03:25:44;9.30;99.90
23207;DHT22;11773;52.570;13.052;2023-12-29T03:28:13;9.30;99.90
23207;DHT22;11773;52.570;13.052;2023-12-29T03:30:43;9.30;99.90
23207;DHT22;11773;52.570;13.052;2023-12-29T03:33:12;9.30;99.90
23207;DHT22;11773;52.570;13.052;2023-12-29T03:35:43;9.30;99.90
23207;DHT22;11773;52.570;13.052;2023-12-29T03:38:13;9.40;99.90
23207;DHT22;11773;52.570;13.052;2023-12-29T03:40:42;9.40;99.90
23207;DHT22;11773;52.570;13.052;2023-12-29T03:43:12;9.40;99.90
23207;DHT22;11773;52.570;13.052;2023-12-29T03:45:41;9.40;99.90
23207;DHT22;11773;52.570;13.052;2023-12-29T03:48:11;9.40;99.90
23207;DHT22;11773;52.570;13.052;2023-12-29T03:50:41;9.40;99.90
23207;DHT22;11773;52.570;13.052;2023-12-29T03:53:11;9.40;99.90
23207;DHT22;11773;52.570;13.052;2023-12-29T03:55:43;9.40;99.90
23207;DHT22;11773;52.570;13.052;2023-12-29T03:58:13;9.50;99.90
23207;DHT22;11773;52.570;13.052;2023-12-29T04:00:42;9.50;99.90
23207;DHT22;11773;52.570;13.052;2023-12-29T04:03:12;9.50;99.90
23207;DHT22;11773;52.570;13.052;2023-12-29T04:05:41;9.50;99.90
23207;DHT22;11773;52.570;13.052;2023-12-29T04:08:11;9.40;99.90
23207;DHT22;11773;52.570;13.052;2023-12-29T04:10:41;9.50;99.90
23207;DHT22;11773;52.570;13.052;2023-12-29T04:13:11;9.50;99.90
23207;DHT22;11773;52.570;13.052;2023-12-29T04:15:41;9.60;99.90
23207;DHT22;11773;52.570;13.052;2023-12-29T04:18:10;9.60;99.90
23207;DHT22;11773;52.570;13.052;2023-12-29T04:20:40;9.60;99.90
23207;DHT22;11773;52.570;13.052;2023-12-29T04:23:10;9.50;99.90
23207;DHT22;11773;52.570;13.052;2023-12-29T04:25:40;9.60;99.90
23207;DHT22;11773;52.570;13.052;2023-12-29T04:28:09;9.50;99.90
23207;DHT22;11773;52.570;13.052;2023-12-29T04:30:39;9.50;99.90
23207;DHT22;11773;52.570;13.052;2023-12-29T04:33:09;9.50;99.90
23207;DHT22;11773;52.570;13.052;2023-12-29T04:35:38;9.40;99.90
23207;DHT22;11773;52.570;13.052;2023-12-29T04:38:08;9.40;99.90
23207;DHT22;11773;52.570;13.052;2023-12-29T04:40:38;9.30;99.90
23207;DHT22;11773;52.570;13.052;2023-12-29T04:43:07;9.40;99.90
23207;DHT22;11773;52.570;13.052;2023-12-29T04:45:37;9.30;99.90
23207;DHT22;11773;52.570;13.052;2023-12-29T04:48:06;9.40;99.90
23207;DHT22;11773;52.570;13.052;2023-12-29T04:50:36;9.30;99.90
23207;DHT22;11773;52.570;13.052;2023-12-29T04:53:06;9.20;99.90
23207;DHT22;11773;52.570;13.052;2023-12-29T04:55:35;9.30;99.90
23207;DHT22;11773;52.570;13.052;2023-12-29T04:58:05;9.40;99.90
23207;DHT22;11773;52.570;13.052;2023-12-29T05:00:35;9.40;99.90
23207;DHT22;11773;52.570;13.052;2023-12-29T05:03:05;9.30;99.90
23207;DHT22;11773;52.570;13.052;2023-12-29T05:05:35;9.40;99.90
23207;DHT22;11773;52.570;13.052;2023-12-29T05:08:04;9.40;99.90
23207;DHT22;11773;52.570;13.052;2023-12-29T05:10:35;9.30;99.90
23207;DHT22;11773;52.570;13.052;2023-12-29T05:13:05;9.40;99.90
23207;DHT22;11773;52.570;13.052;2023-12-29T05:15:35;9.30;99.90
23207;DHT22;11773;52.570;13.052;2023-12-29T05:18:05;9.30;99.90
23207;DHT22;11773;52.570;13.052;2023-12-29T05:20:34;9.30;99.90
23207;DHT22;11773;52.570;13.052;2023-12-29T05:23:04;9.40;99.90
23207;DHT22;11773;52.570;13.052;2023-12-29T05:25:33;9.40;99.90
23207;DHT22;11773;52.570;13.052;2023-12-29T05:28:03;9.50;99.90
23207;DHT22;11773;52.570;13.052;2023-12-29T05:30:33;9.50;99.90
23207;DHT22;11773;52.570;13.052;2023-12-29T05:33:02;9.50;99.90
23207;DHT22;11773;52.570;13.052;2023-12-29T05:35:32;9.50;99.90
23207;DHT22;11773;52.570;13.052;2023-12-29T05:38:02;9.50;99.90
23207;DHT22;11773;52.570;13.052;2023-12-29T05:40:31;9.60;99.90
23207;DHT22;11773;52.570;13.052;2023-12-29T05:43:01;9.60;99.90
23207;DHT22;11773;52.570;13.052;2023-12-29T05:45:30;9.60;99.90
23207;DHT22;11773;52.570;13.052;2023-12-29T05:48:00;9.50;99.90
23207;DHT22;11773;52.570;13.052;2023-12-29T05:50:30;9.50;99.90
23207;DHT22;11773;52.570;13.052;2023-12-29T05:52:59;9.50;99.90
23207;DHT22;11773;52.570;13.052;2023-12-29T05:55:30;9.60;99.90
23207;DHT22;11773;52.570;13.052;2023-12-29T05:57:59;9.60;99.90
23207;DHT22;11773;52.570;13.052;2023-12-29T06:00:29;9.60;99.90
23207;DHT22;11773;52.570;13.052;2023-12-29T06:02:59;9.60;99.90
23207;DHT22;11773;52.570;13.052;2023-12-29T06:05:28;9.60;99.90
23207;DHT22;11773;52.570;13.052;2023-12-29T06:07:58;9.70;99.90
23207;DHT22;11773;52.570;13.052;2023-12-29T06:10:29;9.70;99.90
23207;DHT22;11773;52.570;13.052;2023-12-29T06:13:00;9.70;99.90
23207;DHT22;11773;52.570;13.052;2023-12-29T06:15:31;9.60;99.90
23207;DHT22;11773;52.570;13.052;2023-12-29T06:18:00;9.70;99.90
23207;DHT22;11773;52.570;13.052;2023-12-29T06:20:31;9.70;99.90
23207;DHT22;11773;52.570;13.052;2023-12-29T06:23:00;9.70;99.90
23207;DHT22;11773;52.570;13.052;2023-12-29T06:25:30;9.70;99.90
23207;DHT22;11773;52.570;13.052;2023-12-29T06:28:02;9.70;99.90
23207;DHT22;11773;52.570;13.052;2023-12-29T06:30:34;9.70;99.90
23207;DHT22;11773;52.570;13.052;2023-12-29T06:33:04;9.80;99.90
23207;DHT22;11773;52.570;13.052;2023-12-29T06:35:34;9.70;99.90
23207;DHT22;11773;52.570;13.052;2023-12-29T06:38:05;9.70;99.90
23207;DHT22;11773;52.570;13.052;2023-12-29T06:40:35;9.80;99.90
23207;DHT22;11773;52.570;13.052;2023-12-29T06:43:04;9.80;99.90
23207;DHT22;11773;52.570;13.052;2023-12-29T06:45:34;9.80;99.90
23207;DHT22;11773;52.570;13.052;2023-12-29T06:48:03;9.80;99.90
23207;DHT22;11773;52.570;13.052;2023-12-29T06:50:33;9.80;99.90
23207;DHT22;11773;52.570;13.052;2023-12-29T06:53:04;9.80;99.90
23207;DHT22;11773;52.570;13.052;2023-12-29T06:55:34;9.80;99.90
23207;DHT22;11773;52.570;13.052;2023-12-29T06:58:04;9.80;99.90
23207;DHT22;11773;52.570;13.052;2023-12-29T07:00:34;9.90;99.90
23207;DHT22;11773;52.570;13.052;2023-12-29T07:03:03;9.80;99.90
23207;DHT22;11773;52.570;13.052;2023-12-29T07:05:33;9.90;99.90
23207;DHT22;11773;52.570;13.052;2023-12-29T07:08:03;9.90;99.90
23207;DHT22;11773;52.570;13.052;2023-12-29T07:10:32;10.00;99.90
23207;DHT22;11773;52.570;13.052;2023-12-29T07:13:02;10.00;99.90
23207;DHT22;11773;52.570;13.052;2023-12-29T07:15:32;9.90;99.90
23207;DHT22;11773;52.570;13.052;2023-12-29T07:18:01;9.90;99.90
23207;DHT22;11773;52.570;13.052;2023-12-29T07:20:33;10.00;99.90
23207;DHT22;11773;52.570;13.052;2023-12-29T07:23:03;10.00;99.90
23207;DHT22;11773;52.570;13.052;2023-12-29T07:25:33;10.00;99.90
23207;DHT22;11773;52.570;13.052;2023-12-29T07:28:03;9.90;99.90
23207;DHT22;11773;52.570;13.052;2023-12-29T07:30:33;9.90;99.90
23207;DHT22;11773;52.570;13.052;2023-12-29T07:33:02;9.90;99.90
23207;DHT22;11773;52.570;13.052;2023-12-29T07:35:32;9.90;99.90
23207;DHT22;11773;52.570;13.052;2023-12-29T07:38:02;9.90;99.90
23207;DHT22;11773;52.570;13.052;2023-12-29T07:40:32;9.90;99.90
23207;DHT22;11773;52.570;13.052;2023-12-29T07:43:01;9.90;99.90
23207;DHT22;11773;52.570;13.052;2023-12-29T07:45:31;9.90;99.90
23207;DHT22;11773;52.570;13.052;2023-12-29T07:48:02;9.90;99.90
23207;DHT22;11773;52.570;13.052;2023-12-29T07:50:34;9.90;99.90
23207;DHT22;11773;52.570;13.052;2023-12-29T07:53:04;9.90;99.90
23207;DHT22;11773;52.570;13.052;2023-12-29T07:55:38;9.90;99.90
23207;DHT22;11773;52.570;13.052;2023-12-29T07:58:08;9.90;99.90
23207;DHT22;11773;52.570;13.052;2023-12-29T08:00:38;10.00;99.90
23207;DHT22;11773;52.570;13.052;2023-12-29T08:03:08;10.00;99.90
23207;DHT22;11773;52.570;13.052;2023-12-29T08:05:38;10.10;99.90
23207;DHT22;11773;52.570;13.052;2023-12-29T08:08:07;10.00;99.90
23207;DHT22;11773;52.570;13.052;2023-12-29T08:10:37;10.00;99.90
23207;DHT22;11773;52.570;13.052;2023-12-29T08:13:06;10.10;99.90
23207;DHT22;11773;52.570;13.052;2023-12-29T08:15:37;10.10;99.90
23207;DHT22;11773;52.570;13.052;2023-12-29T08:18:07;10.10;99.90
23207;DHT22;11773;52.570;13.052;2023-12-29T08:20:37;10.20;99.90
23207;DHT22;11773;52.570;13.052;2023-12-29T08:23:06;10.20;99.90
23207;DHT22;11773;52.570;13.052;2023-12-29T08:25:36;10.20;99.90
23207;DHT22;11773;52.570;13.052;2023-12-29T08:28:06;10.20;99.90
23207;DHT22;11773;52.570;13.052;2023-12-29T08:30:35;10.20;99.90
23207;DHT22;11773;52.570;13.052;2023-12-29T08:33:06;10.20;99.90
23207;DHT22;11773;52.570;13.052;2023-12-29T08:35:36;10.20;99.90
23207;DHT22;11773;52.570;13.052;2023-12-29T08:38:05;10.30;99.90
23207;DHT22;11773;52.570;13.052;2023-12-29T08:40:36;10.20;99.90
23207;DHT22;11773;52.570;13.052;2023-12-29T08:43:05;10.30;99.90
23207;DHT22;11773;52.570;13.052;2023-12-29T08:45:35;10.30;99.90
23207;DHT22;11773;52.570;13.052;2023-12-29T08:48:06;10.30;99.90
23207;DHT22;11773;52.570;13.052;2023-12-29T08:50:36;10.30;99.90
23207;DHT22;11773;52.570;13.052;2023-12-29T08:53:05;10.20;99.90
23207;DHT22;11773;52.570;13.052;2023-12-29T08:55:35;10.30;99.90
23207;DHT22;11773;52.570;13.052;2023-12-29T08:58:04;10.20;99.90
23207;DHT22;11773;52.570;13.052;2023-12-29T09:00:34;10.30;99.90
23207;DHT22;11773;52.570;13.052;2023-12-29T09:03:04;10.20;99.90
23207;DHT22;11773;52.570;13.052;2023-12-29T09:05:34;10.30;99.90
23207;DHT22;11773;52.570;13.052;2023-12-29T09:08:04;10.30;99.90
23207;DHT22;11773;52.570;13.052;2023-12-29T09:10:34;10.30;99.90
23207;DHT22;11773;52.570;13.052;2023-12-29T09:13:04;10.30;99.90
23207;DHT22;11773;52.570;13.052;2023-12-29T09:15:34;10.40;99.90
23207;DHT22;11773;52.570;13.052;2023-12-29T09:18:03;10.40;99.90
23207;DHT22;11773;52.570;13.052;2023-12-29T09:20:34;10.40;99.90
23207;DHT22;11773;52.570;13.052;2023-12-29T09:23:05;10.40;99.90
23207;DHT22;11773;52.570;13.052;2023-12-29T09:25:34;10.40;99.90
23207;DHT22;11773;52.570;13.052;2023-12-29T09:28:05;10.40;99.90
23207;DHT22;11773;52.570;13.052;2023-12-29T09:30:34;10.60;99.90
23207;DHT22;11773;52.570;13.052;2023-12-29T09:33:04;10.50;99.90
23207;DHT22;11773;52.570;13.052;2023-12-29T09:35:34;10.60;99.90
23207;DHT22;11773;52.570;13.052;2023-12-29T09:38:05;10.60;99.90
23207;DHT22;11773;52.570;13.052;2023-12-29T09:40:37;10.70;99.90
23207;DHT22;11773;52.570;13.052;2023-12-29T09:43:07;10.70;99.90
23207;DHT22;11773;52.570;13.052;2023-12-29T09:45:39;10.70;99.90
23207;DHT22;11773;52.570;13.052;2023-12-29T09:48:11;10.70;99.90
23207;DHT22;11773;52.570;13.052;2023-12-29T09:50:44;10.70;99.90
23207;DHT22;11773;52.570;13.052;2023-12-29T09:53:15;10.70;99.90
23207;DHT22;11773;52.570;13.052;2023-12-29T09:55:46;10.80;99.90
23207;DHT22;11773;52.570;13.052;2023-12-29T09:58:20;10.80;99.90
23207;DHT22;11773;52.570;13.052;2023-12-29T10:00:52;10.80;99.90
23207;DHT22;11773;52.570;13.052;2023-12-29T10:03:22;11.00;99.90
23207;DHT22;11773;52.570;13.052;2023-12-29T10:05:54;11.00;99.90
23207;DHT22;11773;52.570;13.052;2023-12-29T10:08:30;11.00;99.90
23207;DHT22;11773;52.570;13.052;2023-12-29T10:11:03;11.00;99.90
23207;DHT22;11773;52.570;13.052;2023-12-29T10:13:36;11.00;99.90
23207;DHT22;11773;52.570;13.052;2023-12-29T10:16:10;11.10;99.90
23207;DHT22;11773;52.570;13.052;2023-12-29T10:18:46;11.10;99.90
23207;DHT22;11773;52.570;13.052;2023-12-29T10:21:52;11.10;99.90
23207;DHT22;11773;52.570;13.052;2023-12-29T10:24:23;11.10;99.90
23207;DHT22;11773;52.570;13.052;2023-12-29T10:26:53;11.30;99.90
23207;DHT22;11773;52.570;13.052;2023-12-29T10:29:24;11.40;99.90
23207;DHT22;11773;52.570;13.052;2023-12-29T10:31:55;11.30;99.90
23207;DHT22;11773;52.570;13.052;2023-12-29T10:34:26;11.30;99.90
23207;DHT22;11773;52.570;13.052;2023-12-29T10:36:58;11.30;99.90
23207;DHT22;11773;52.570;13.052;2023-12-29T10:39:30;11.30;99.90
23207;DHT22;11773;52.570;13.052;2023-12-29T10:42:07;11.30;99.90
23207;DHT22;11773;52.570;13.052;2023-12-29T10:44:39;11.30;99.90
23207;DHT22;11773;52.570;13.052;2023-12-29T10:47:12;11.40;99.90
23207;DHT22;11773;52.570;13.052;2023-12-29T10:49:42;11.40;99.90
23207;DHT22;11773;52.570;13.052;2023-12-29T10:52:16;11.30;99.90
23207;DHT22;11773;52.570;13.052;2023-12-29T10:54:45;11.40;99.90
23207;DHT22;11773;52.570;13.052;2023-12-29T10:57:15;11.30;99.90
23207;DHT22;11773;52.570;13.052;2023-12-29T10:59:54;11.40;99.90
23207;DHT22;11773;52.570;13.052;2023-12-29T11:02:19;11.40;99.90
23207;DHT22;11773;52.570;13.052;2023-12-29T11:04:48;11.40;99.90
23207;DHT22;11773;52.570;13.052;2023-12-29T11:07:42;11.40;99.90
23207;DHT22;11773;52.570;13.052;2023-12-29T11:10:08;11.50;99.90
23207;DHT22;11773;52.570;13.052;2023-12-29T11:12:38;11.50;99.90
23207;DHT22;11773;52.570;13.052;2023-12-29T11:15:08;11.50;99.90
23207;DHT22;11773;52.570;13.052;2023-12-29T11:17:38;11.60;99.90
23207;DHT22;11773;52.570;13.052;2023-12-29T11:20:11;11.60;99.90
23207;DHT22;11773;52.570;13.052;2023-12-29T11:22:45;11.60;99.90
23207;DHT22;11773;52.570;13.052;2023-12-29T11:25:15;11.60;99.90
23207;DHT22;11773;52.570;13.052;2023-12-29T11:27:45;11.60;99.90
23207;DHT22;11773;52.570;13.052;2023-12-29T11:30:17;11.50;99.90
23207;DHT22;11773;52.570;13.052;2023-12-29T11:32:58;11.50;99.90
23207;DHT22;11773;52.570;13.052;2023-12-29T11:35:37;11.50;99.90
23207;DHT22;11773;52.570;13.052;2023-12-29T11:41:02;11.50;99.90
23207;DHT22;11773;52.570;13.052;2023-12-29T11:43:44;11.60;99.90
23207;DHT22;11773;52.570;13.052;2023-12-29T11:46:34;11.60;99.90
23207;DHT22;11773;52.570;13.052;2023-12-29T11:49:05;11.70;99.90
23207;DHT22;11773;52.570;13.052;2023-12-29T11:51:43;11.70;99.90
23207;DHT22;11773;52.570;13.052;2023-12-29T11:54:26;11.70;99.90
23207;DHT22;11773;52.570;13.052;2023-12-29T11:56:56;11.70;99.90
23207;DHT22;11773;52.570;13.052;2023-12-29T11:59:26;11.70;99.90
23207;DHT22;11773;52.570;13.052;2023-12-29T12:01:58;11.70;99.90
23207;DHT22;11773;52.570;13.052;2023-12-29T12:04:42;11.70;99.90
23207;DHT22;11773;52.570;13.052;2023-12-29T12:12:56;11.70;99.90
23207;DHT22;11773;52.570;13.052;2023-12-29T12:18:03;11.70;99.90
23207;DHT22;11773;52.570;13.052;2023-12-29T12:20:38;11.60;99.90
23207;DHT22;11773;52.570;13.052;2023-12-29T12:23:16;11.50;99.90
23207;DHT22;11773;52.570;13.052;2023-12-29T12:25:46;11.40;99.90
23207;DHT22;11773;52.570;13.052;2023-12-29T12:28:18;11.40;99.90
23207;DHT22;11773;52.570;13.052;2023-12-29T12:30:48;11.30;99.90
23207;DHT22;11773;52.570;13.052;2023-12-29T12:33:17;11.30;99.90
23207;DHT22;11773;52.570;13.052;2023-12-29T12:35:58;11.30;99.90
23207;DHT22;11773;52.570;13.052;2023-12-29T12:38:21;11.20;99.90
23207;DHT22;11773;52.570;13.052;2023-12-29T12:40:53;11.10;99.90
23207;DHT22;11773;52.570;13.052;2023-12-29T12:43:25;11.20;99.90
23207;DHT22;11773;52.570;13.052;2023-12-29T12:46:00;11.20;99.90
23207;DHT22;11773;52.570;13.052;2023-12-29T12:48:43;11.20;99.90
23207;DHT22;11773;52.570;13.052;2023-12-29T12:51:14;11.30;99.90
23207;DHT22;11773;52.570;13.052;2023-12-29T12:53:44;11.30;99.90
23207;DHT22;11773;52.570;13.052;2023-12-29T12:56:17;11.30;99.90
23207;DHT22;11773;52.570;13.052;2023-12-29T12:58:47;11.40;99.90
23207;DHT22;11773;52.570;13.052;2023-12-29T13:01:18;11.30;99.90
23207;DHT22;11773;52.570;13.052;2023-12-29T13:03:48;11.30;99.90
23207;DHT22;11773;52.570;13.052;2023-12-29T13:06:21;11.30;99.90
23207;DHT22;11773;52.570;13.052;2023-12-29T13:11:20;11.20;99.90
23207;DHT22;11773;52.570;13.052;2023-12-29T13:13:55;11.30;99.90
23207;DHT22;11773;52.570;13.052;2023-12-29T13:16:34;11.30;99.90
23207;DHT22;11773;52.570;13.052;2023-12-29T13:19:16;11.30;99.90
23207;DHT22;11773;52.570;13.052;2023-12-29T13:21:52;11.30;99.90
23207;DHT22;11773;52.570;13.052;2023-12-29T13:24:24;11.30;99.90
23207;DHT22;11773;52.570;13.052;2023-12-29T13:27:07;11.30;99.90
23207;DHT22;11773;52.570;13.052;2023-12-29T13:29:37;11.30;99.90
23207;DHT22;11773;52.570;13.052;2023-12-29T13:32:15;11.20;99.90
23207;DHT22;11773;52.570;13.052;2023-12-29T13:35:04;11.20;99.90
23207;DHT22;11773;52.570;13.052;2023-12-29T13:38:05;11.30;99.90
23207;DHT22;11773;52.570;13.052;2023-12-29T13:40:56;11.30;99.90
23207;DHT22;11773;52.570;13.052;2023-12-29T13:43:29;11.30;99.90
23207;DHT22;11773;52.570;13.052;2023-12-29T13:46:01;11.30;99.90
23207;DHT22;11773;52.570;13.052;2023-12-29T13:48:32;11.40;99.90
23207;DHT22;11773;52.570;13.052;2023-12-29T13:51:02;11.40;99.90
23207;DHT22;11773;52.570;13.052;2023-12-29T13:53:33;11.40;99.90
23207;DHT22;11773;52.570;13.052;2023-12-29T13:56:07;11.40;99.90
23207;DHT22;11773;52.570;13.052;2023-12-29T13:58:38;11.40;99.90
23207;DHT22;11773;52.570;13.052;2023-12-29T14:01:09;11.40;99.90
23207;DHT22;11773;52.570;13.052;2023-12-29T14:03:58;11.40;99.90
23207;DHT22;11773;52.570;13.052;2023-12-29T14:06:41;11.40;99.90
23207;DHT22;11773;52.570;13.052;2023-12-29T14:09:14;11.40;99.90
23207;DHT22;11773;52.570;13.052;2023-12-29T14:11:48;11.30;99.90
23207;DHT22;11773;52.570;13.052;2023-12-29T14:14:25;11.40;99.90
23207;DHT22;11773;52.570;13.052;2023-12-29T14:16:55;11.30;99.90
23207;DHT22;11773;52.570;13.052;2023-12-29T14:19:25;11.30;99.90
23207;DHT22;11773;52.570;13.052;2023-12-29T14:21:55;11.30;99.90
23207;DHT22;11773;52.570;13.052;2023-12-29T14:24:25;11.30;99.90
23207;DHT22;11773;52.570;13.052;2023-12-29T14:26:56;11.30;99.90
23207;DHT22;11773;52.570;13.052;2023-12-29T14:29:27;11.40;99.90
23207;DHT22;11773;52.570;13.052;2023-12-29T14:31:58;11.40;99.90
23207;DHT22;11773;52.570;13.052;2023-12-29T14:34:28;11.40;99.90
23207;DHT22;11773;52.570;13.052;2023-12-29T14:36:58;11.40;99.90
23207;DHT22;11773;52.570;13.052;2023-12-29T14:39:29;11.30;99.90
23207;DHT22;11773;52.570;13.052;2023-12-29T14:41:59;11.30;99.90
23207;DHT22;11773;52.570;13.052;2023-12-29T14:44:29;11.30;99.90
23207;DHT22;11773;52.570;13.052;2023-12-29T14:47:01;11.30;99.90
23207;DHT22;11773;52.570;13.052;2023-12-29T14:49:30;11.30;99.90
23207;DHT22;11773;52.570;13.052;2023-12-29T14:52:00;11.30;99.90
23207;DHT22;11773;52.570;13.052;2023-12-29T14:54:30;11.20;99.90
23207;DHT22;11773;52.570;13.052;2023-12-29T14:56:59;11.20;99.90
23207;DHT22;11773;52.570;13.052;2023-12-29T14:59:31;11.20;99.90
23207;DHT22;11773;52.570;13.052;2023-12-29T15:02:00;11.20;99.90
23207;DHT22;11773;52.570;13.052;2023-12-29T15:04:30;11.20;99.90
23207;DHT22;11773;52.570;13.052;2023-12-29T15:07:00;11.20;99.90
23207;DHT22;11773;52.570;13.052;2023-12-29T15:09:29;11.20;99.90
23207;DHT22;11773;52.570;13.052;2023-12-29T15:12:01;11.20;99.90
23207;DHT22;11773;52.570;13.052;2023-12-29T15:14:32;11.30;99.90
23207;DHT22;11773;52.570;13.052;2023-12-29T15:17:02;11.30;99.90
23207;DHT22;11773;52.570;13.052;2023-12-29T15:19:31;11.30;99.90
23207;DHT22;11773;52.570;13.052;2023-12-29T15:22:02;11.30;99.90
23207;DHT22;11773;52.570;13.052;2023-12-29T15:24:31;11.30;99.90
23207;DHT22;11773;52.570;13.052;2023-12-29T15:27:01;11.30;99.90
23207;DHT22;11773;52.570;13.052;2023-12-29T15:29:31;11.30;99.90
23207;DHT22;11773;52.570;13.052;2023-12-29T15:32:01;11.30;99.90
23207;DHT22;11773;52.570;13.052;2023-12-29T15:34:31;11.20;99.90
23207;DHT22;11773;52.570;13.052;2023-12-29T15:37:01;11.30;99.90
23207;DHT22;11773;52.570;13.052;2023-12-29T15:39:31;11.30;99.90
23207;DHT22;11773;52.570;13.052;2023-12-29T15:42:00;11.30;99.90
23207;DHT22;11773;52.570;13.052;2023-12-29T15:44:30;11.30;99.90
23207;DHT22;11773;52.570;13.052;2023-12-29T15:46:59;11.30;99.90
23207;DHT22;11773;52.570;13.052;2023-12-29T15:49:29;11.30;99.90
23207;DHT22;11773;52.570;13.052;2023-12-29T15:51:59;11.30;99.90
23207;DHT22;11773;52.570;13.052;2023-12-29T15:54:28;11.40;99.90
23207;DHT22;11773;52.570;13.052;2023-12-29T15:57:00;11.40;99.90
23207;DHT22;11773;52.570;13.052;2023-12-29T15:59:31;11.40;99.90
23207;DHT22;11773;52.570;13.052;2023-12-29T16:02:01;11.30;99.90
23207;DHT22;11773;52.570;13.052;2023-12-29T16:04:31;11.30;99.90